• Join FlightAware (Why Join?)
  • Login
  • US Flag 
05:04AM EDT


 

Airport Tracker/Info


-or-


 

Live Flight TrackerFlight Track Log ✈ AWE2690 ✈ 19-Dec-2013 ✈ KCLT - KSYR

Flight Track Log - Related Links

Times and Time Zones

All times are in EST time to prevent confusion due to time zone crossing. See the AWE2690 flight status page for this flight to view local times or setup timezone preferences in your user account.

Time Position Orientation Groundspeed Altitude Reporting Facility
EST Latitude Longitude Course Direction KTS MPH feet Rate Location/Type
01:22PM 35.1956 -80.9533 North 162 186 1,400  Level Atlanta Center
01:23PM 35.0981 -80.9822 194° South 257 296 5,300 2,340 Climbing Atlanta Center
01:24PM 35.0961 -81.0686 268° West 274 315 7,900 2,460 Climbing Atlanta Center
01:25PM 35.5049 -80.9408 13° North  Level FlightAware Approximate
01:25PM 35.1069 -81.0886 304° West 299 344 8,500  Level Atlanta Center
01:26PM 35.6255 -80.9053 13° North  Level FlightAware Approximate
01:26PM 35.1828 -81.1189 342° North 277 319 10,800  Level Atlanta Center
01:27PM 35.7472 -80.8774 North  Level FlightAware Approximate
01:27PM 35.2717 -81.0803 20° North 290 334 13,100  Level Atlanta Center
01:28PM 35.3667 -81.0411 19° North 324 373 15,500 2,340 Climbing Atlanta Center
01:29PM 35.4656 -80.9942 21° North 344 396 17,800 2,100 Climbing Atlanta Center
01:30PM 35.5667 -80.9494 20° North 367 422 19,700 1,860 Climbing Atlanta Center
01:31PM 35.6678 -80.9075 19° North 379 436 21,600 1,740 Climbing Atlanta Center
01:32PM 35.7756 -80.8803 12° North 389 448 23,200 1,500 Climbing Atlanta Center
01:33PM 35.8900 -80.8656 North 394 453 24,700 1,500 Climbing Atlanta Center
01:34PM 36.0044 -80.8508 North 402 463 26,200 1,380 Climbing Atlanta Center
01:35PM 36.1228 -80.8358 North 413 475 27,500 1,260 Climbing Atlanta Center
01:36PM 36.2414 -80.8208 North 423 487 28,800 1,380 Climbing Atlanta Center
01:37PM 36.3594 -80.7928 11° North 423 487 30,300 1,140 Climbing Atlanta Center
01:38PM 36.4769 -80.7364 21° North 428 493 31,100 660 Climbing Atlanta Center
01:39PM 36.5964 -80.6800 21° North 438 504 31,700 720 Climbing Atlanta Center
01:40PM 36.7178 -80.6231 21° North 451 519 32,600 960 Climbing Atlanta Center
01:42PM 37.0050 -80.4919 20° North 459 528 35,000 720 Climbing Washington Center
01:43PM 37.1242 -80.4344 21° North 453 521 35,100 540 Climbing Washington Center
01:44PM 37.2306 -80.3864 20° North 453 521 36,100 900 Climbing Washington Center
01:45PM 37.3433 -80.3308 21° North 448 516 37,000 420 Climbing Washington Center
01:46PM 37.4581 -80.2778 20° North 443 510 37,000  Level Washington Center
01:47PM 37.5750 -80.2194 22° Northeast 438 504 37,000  Level Washington Center
01:48PM 37.6939 -80.1636 20° North 438 504 37,000  Level Washington Center
01:49PM 37.8236 -80.1006 21° North 443 510 37,000  Level Washington Center
01:50PM 37.9425 -80.0444 20° North 443 510 37,000  Level Washington Center
01:51PM 38.0572 -79.9881 21° North 443 510 37,000  Level Washington Center
01:52PM 38.1761 -79.9317 20° North 443 510 37,000  Level Washington Center
01:53PM 38.2931 -79.8722 22° Northeast 438 504 37,000  Level Washington Center
01:54PM 38.3928 -79.8197 22° Northeast 438 504 37,000  Level Washington Center
01:55PM 38.5094 -79.7628 21° North 438 504 37,000  Level Washington Center
01:56PM 38.6239 -79.7081 20° North 438 504 37,000  Level Washington Center
01:57PM 38.7364 -79.6506 22° Northeast 438 504 37,000  Level Washington Center
01:58PM 38.8617 -79.5881 21° North 438 504 37,000  Level Washington Center
01:59PM 38.9614 -79.5322 24° Northeast 433 498 37,000  Level Washington Center
02:01PM 39.2258 -79.3986 21° North 440 506 37,000  Level Cleveland Center
02:02PM 39.3631 -79.3306 21° North 441 507 37,000  Level Cleveland Center
02:03PM 39.4781 -79.2775 20° North 439 505 37,000  Level Cleveland Center
02:04PM 39.5928 -79.2244 20° North 440 506 37,000  Level Cleveland Center
02:05PM 39.7072 -79.1683 21° North 441 507 37,000  Level Cleveland Center
02:06PM 39.8228 -79.1136 20° North 443 510 37,000  Level Cleveland Center
02:07PM 39.9378 -79.0608 19° North 442 509 37,000  Level Cleveland Center
02:09PM 40.0703 -78.9958 21° North 442 509 37,000  Level Cleveland Center
02:10PM 40.1864 -78.9408 20° North 445 512 37,000  Level Cleveland Center
02:11PM 40.3008 -78.8850 20° North 443 510 37,000  Level Cleveland Center
02:12PM 40.4389 -78.8178 20° North 443 510 37,000  Level Cleveland Center
02:13PM 40.5533 -78.7622 20° North 442 509 37,000 -180 Level Cleveland Center
02:14PM 40.6683 -78.7069 20° North 441 507 36,700 -660 Descending Cleveland Center
02:15PM 40.7819 -78.6519 20° North 440 506 35,700 -1,080 Descending Cleveland Center
02:16PM 40.8989 -78.5950 20° North 430 495 34,500 -1,260 Descending Cleveland Center
02:17PM 41.0081 -78.5408 21° North 422 486 33,100 -780 Descending Cleveland Center
02:18PM 41.1197 -78.4825 21° North 429 494 33,000 -60 Descending Cleveland Center
02:19PM 41.2597 -78.4167 19° North 442 509 33,000  Level Cleveland Center
02:20PM 41.3836 -78.3550 20° North 455 524 33,000 -60 Level Cleveland Center
02:21PM 41.5017 -78.2950 21° North 457 526 32,900 -780 Descending Cleveland Center
02:22PM 41.6208 -78.2364 20° North 458 527 31,400 -1,440 Descending Cleveland Center
02:23PM 41.7347 -78.1783 21° North 443 510 30,000 -1,200 Descending Cleveland Center
02:24PM 41.8467 -78.1217 21° North 436 502 29,000 -480 Descending Cleveland Center
02:25PM 41.9700 -78.0592 21° North 440 506 29,000  Level Cleveland Center
02:26PM 42.0844 -77.9975 22° Northeast 445 512 29,000 -360 Level Cleveland Center
02:27PM 42.1992 -77.8497 44° Northeast 476 548 28,300 -540 Descending Cleveland Center
02:28PM 42.2906 -77.7236 46° Northeast 473 544 28,000 -180 Descending Cleveland Center
02:29PM 42.3808 -77.5989 46° Northeast 470 541 28,000  Level Cleveland Center
02:30PM 42.4775 -77.4656 45° Northeast 478 550 28,000  Level Cleveland Center
02:31PM 42.5822 -77.3175 46° Northeast 485 558 28,000 -1,620 Level Cleveland Center
02:32PM 42.6750 -77.1903 45° Northeast 480 552 24,700 -3,720 Descending Cleveland Center
02:33PM 42.7625 -77.0667 46° Northeast 460 529 20,400 -3,900 Descending Cleveland Center
02:34PM 42.7983 -77.0197 44° Northeast 456 525 18,700 -3,840 Descending Boston Center
02:35PM 42.8597 -76.8728 60° Northeast 449 517 14,600 -4,200 Descending Boston Center
02:35PM 42.8883 -76.7822 67° East 439 505 12,200 -2,400 Descending Cleveland Center
02:36PM 42.9386 -76.6336 65° Northeast 398 458 10,900 -1,200 Descending Cleveland Center
02:37PM 42.9900 -76.5283 56° Northeast 345 397 9,800 -1,320 Descending Cleveland Center
02:39PM 43.0419 -76.4342 53° Northeast 319 367 8,200 -1,620 Descending Cleveland Center
02:40PM 43.0919 -76.3392 54° Northeast 310 357 6,500 -1,560 Descending Cleveland Center
02:41PM 43.1472 -76.2275 56° Northeast 289 333 5,000 -1,140 Descending Boston Center
02:41PM 43.1622 -76.1928 59° Northeast 295 339 4,900 -540 Descending Boston Center
02:42PM 43.1725 -76.1158 80° East 285 328 4,400 -1,140 Descending Boston Center
02:42PM 43.1744 -76.0853 85° East 291 335 3,800 -1,560 Descending Boston Center
02:43PM 43.1544 -75.9969 107° East 270 311 2,400 -1,320 Descending Boston Center
02:44PM 43.1189 -76.0025 187° South 176 203 1,700 -900 Descending Boston Center
02:44PM 43.1106 -76.0164 231° Southwest 207 238 1,500 -600 Descending Boston Center
02:45PM 43.1108 -76.0497 271° West 117 135 1,100 -720 Descending Boston Center
02:45PM 43.1106 -76.0661 269° West 155 178 800 -600 Descending Boston Center
02:46PM 43.1092 -76.1131 268° West 136 157 300 -540 Descending Boston Center